Time;durP1;ratioP1;P1;durP2;ratioP2;P2;SDS_P1;SDS_P2;PMS_P1;PMS_P2;Temp;Humidity;BMP_temperature;BMP_pressure;BME280_temperature;BME280_humidity;BME280_pressure;Samples;Min_cycle;Max_cycle;Signal;HPM_P1;HPM_P2
2023/08/28 00:01:52;;;;;;;2.13;1.50;;;16.70;99.90;;;;;;4155982;28;20109;-77
2023/08/28 00:03:53;;;;;;;1.77;1.17;;;16.70;99.90;;;;;;4150795;28;20040;-77
2023/08/28 00:05:53;;;;;;;2.13;1.58;;;16.70;99.90;;;;;;4164182;28;20447;-77
2023/08/28 00:07:54;;;;;;;2.38;1.30;;;16.70;99.90;;;;;;4160982;28;20060;-77
2023/08/28 00:09:54;;;;;;;2.20;1.52;;;16.70;99.90;;;;;;4193223;28;20545;-77
2023/08/28 00:11:55;;;;;;;2.17;1.98;;;16.70;99.90;;;;;;4165604;28;20381;-77
2023/08/28 00:13:56;;;;;;;1.83;1.30;;;16.70;99.90;;;;;;4161215;28;20088;-77
2023/08/28 00:15:56;;;;;;;1.67;1.17;;;16.70;99.90;;;;;;4155122;28;20032;-78
2023/08/28 00:17:57;;;;;;;2.35;1.35;;;16.70;99.90;;;;;;4158861;28;20029;-77
2023/08/28 00:19:57;;;;;;;2.35;1.27;;;16.70;99.90;;;;;;4161481;28;20101;-73
2023/08/28 00:21:58;;;;;;;2.53;1.55;;;16.70;99.90;;;;;;4160421;28;20056;-64
2023/08/28 00:23:59;;;;;;;1.48;1.30;;;16.70;99.90;;;;;;4147227;28;20036;-64
2023/08/28 00:26:00;;;;;;;1.90;1.40;;;16.70;99.90;;;;;;4175429;28;20078;-64
2023/08/28 00:28:00;;;;;;;2.70;1.75;;;16.70;99.90;;;;;;4158008;28;20021;-64
2023/08/28 00:30:01;;;;;;;1.58;1.08;;;16.70;99.90;;;;;;4161236;28;20362;-64
2023/08/28 00:32:02;;;;;;;1.35;0.90;;;16.70;99.90;;;;;;4158908;28;20033;-64
2023/08/28 00:34:03;;;;;;;1.60;1.27;;;16.70;99.90;;;;;;4192988;28;20029;-64
2023/08/28 00:36:03;;;;;;;1.92;1.40;;;16.70;99.90;;;;;;4161024;28;20029;-64
2023/08/28 00:38:04;;;;;;;1.88;1.25;;;16.70;99.90;;;;;;4166927;28;20489;-64
2023/08/28 00:40:07;;;;;;;2.65;1.48;;;16.70;99.90;;;;;;4161329;28;20116;-73
2023/08/28 00:42:07;;;;;;;;;;;16.70;99.90;;;;;;4156143;28;20050;-77
2023/08/28 00:44:08;;;;;;;1.77;1.20;;;16.80;99.90;;;;;;4160415;28;19971;-77
2023/08/28 00:46:08;;;;;;;2.25;1.08;;;16.80;99.90;;;;;;4174519;28;20060;-77
2023/08/28 00:48:12;;;;;;;2.20;1.30;;;16.80;99.90;;;;;;4160787;28;20501;-77
2023/08/28 00:50:13;;;;;;;1.45;1.25;;;16.70;99.90;;;;;;4160888;28;20029;-77
2023/08/28 00:52:14;;;;;;;1.40;1.30;;;16.80;99.90;;;;;;4160129;28;20025;-77
2023/08/28 00:54:15;;;;;;;1.80;1.20;;;16.70;99.90;;;;;;4160469;28;20030;-76
2023/08/28 00:56:15;;;;;;;1.52;1.10;;;16.70;99.90;;;;;;4160768;28;20033;-77
2023/08/28 00:58:16;;;;;;;1.33;1.02;;;16.70;99.90;;;;;;4173040;28;20448;-77
2023/08/28 01:00:18;;;;;;;1.30;1.20;;;16.70;99.90;;;;;;4160359;28;20029;-77
2023/08/28 01:02:18;;;;;;;1.30;1.20;;;16.70;99.90;;;;;;4159463;28;20045;-77
2023/08/28 01:04:19;;;;;;;1.55;1.20;;;16.70;99.90;;;;;;4149933;28;20050;-70
2023/08/28 01:06:39;;;;;;;1.45;1.02;;;16.60;99.90;;;;;;4157560;28;20098;-77
2023/08/28 01:08:51;;;;;;;1.73;1.30;;;16.60;99.90;;;;;;4152448;28;20034;-77
2023/08/28 01:10:57;;;;;;;2.13;1.37;;;16.60;99.90;;;;;;4151857;28;20358;-77
2023/08/28 01:12:58;;;;;;;2.47;1.50;;;16.60;99.90;;;;;;4156175;28;20318;-77
2023/08/28 01:15:02;;;;;;;3.33;1.52;;;16.60;99.90;;;;;;4158386;28;20096;-76
2023/08/28 01:17:06;;;;;;;1.48;1.27;;;16.60;99.90;;;;;;4158402;28;20116;-77
2023/08/28 01:19:23;;;;;;;1.83;1.33;;;16.70;99.90;;;;;;4164414;28;20068;-77
2023/08/28 01:21:24;;;;;;;1.80;1.23;;;16.70;99.90;;;;;;4164040;28;20041;-77
2023/08/28 01:23:32;;;;;;;2.63;1.40;;;16.70;99.90;;;;;;4164324;28;20033;-76
2023/08/28 01:25:33;;;;;;;2.92;1.67;;;16.70;99.90;;;;;;4163285;28;20048;-76
2023/08/28 01:27:35;;;;;;;1.70;1.42;;;16.70;99.90;;;;;;4164135;28;20043;-77
2023/08/28 01:29:35;;;;;;;1.75;1.50;;;16.60;99.90;;;;;;4164159;28;20075;-77
2023/08/28 01:31:36;;;;;;;1.40;1.30;;;16.60;99.90;;;;;;4162050;28;20485;-77
2023/08/28 01:33:37;;;;;;;2.83;1.55;;;16.50;99.90;;;;;;4163877;28;20029;-77
2023/08/28 01:35:37;;;;;;;1.80;1.45;;;16.60;99.90;;;;;;4163224;28;20033;-77
2023/08/28 01:38:16;;;;;;;1.58;1.20;;;16.50;99.90;;;;;;4171361;28;20029;-76
2023/08/28 01:40:22;;;;;;;1.92;1.45;;;16.50;99.90;;;;;;4128411;28;20033;-77
2023/08/28 01:42:23;;;;;;;1.85;1.50;;;16.50;99.90;;;;;;4161124;28;20481;-76
2023/08/28 01:44:29;;;;;;;3.03;1.67;;;16.50;99.90;;;;;;4163937;28;20033;-77
2023/08/28 01:46:32;;;;;;;1.30;1.20;;;16.50;99.90;;;;;;4161917;28;20041;-77
2023/08/28 01:48:40;;;;;;;3.15;1.50;;;16.50;99.90;;;;;;4163468;28;20428;-76
2023/08/28 01:50:41;;;;;;;2.75;1.88;;;16.50;99.90;;;;;;4162621;28;20095;-75
2023/08/28 01:52:42;;;;;;;1.50;1.40;;;16.50;99.90;;;;;;4162774;28;20061;-77
2023/08/28 01:54:42;;;;;;;2.22;1.65;;;16.50;99.90;;;;;;4146103;28;20032;-77
2023/08/28 01:56:44;;;;;;;3.38;1.65;;;16.50;99.90;;;;;;4163309;28;20057;-76
2023/08/28 01:58:46;;;;;;;2.38;1.73;;;16.50;99.90;;;;;;4157802;28;20037;-76
2023/08/28 02:00:47;;;;;;;1.95;1.60;;;16.40;99.90;;;;;;4163347;28;20030;-76
2023/08/28 02:02:48;;;;;;;1.73;1.55;;;16.40;99.90;;;;;;4158785;28;20108;-77
2023/08/28 02:04:48;;;;;;;1.98;1.30;;;16.40;99.90;;;;;;4153033;28;20045;-76
2023/08/28 02:06:49;;;;;;;3.53;1.63;;;16.40;99.90;;;;;;4161794;28;20112;-77
2023/08/28 02:08:50;;;;;;;1.80;1.60;;;16.40;99.90;;;;;;4162874;28;20121;-74
2023/08/28 02:10:52;;;;;;;2.80;1.50;;;16.40;99.90;;;;;;4179534;28;20041;-76
2023/08/28 02:12:52;;;;;;;1.50;1.40;;;16.40;99.90;;;;;;4166471;28;20378;-76
2023/08/28 02:14:53;;;;;;;2.10;1.55;;;16.40;99.90;;;;;;4161714;28;20030;-77
2023/08/28 02:16:53;;;;;;;1.40;1.25;;;16.40;99.90;;;;;;4169975;28;20428;-77
2023/08/28 02:18:54;;;;;;;1.90;1.55;;;16.40;99.90;;;;;;4168682;28;20041;-76
2023/08/28 02:20:55;;;;;;;2.28;1.60;;;16.40;99.90;;;;;;4151943;28;20109;-77
2023/08/28 02:22:55;;;;;;;2.53;1.77;;;16.40;99.90;;;;;;4158275;28;20022;-77
2023/08/28 02:24:58;;;;;;;1.70;1.50;;;16.40;99.90;;;;;;4178131;28;20032;-77
2023/08/28 02:27:00;;;;;;;2.30;1.55;;;16.40;99.90;;;;;;4162566;28;20114;-77
2023/08/28 02:29:00;;;;;;;1.52;1.42;;;16.40;99.90;;;;;;4152618;28;20057;-77
2023/08/28 02:31:03;;;;;;;3.60;1.83;;;16.30;99.90;;;;;;4162225;28;20037;-72
2023/08/28 02:33:04;;;;;;;1.90;1.60;;;16.30;99.90;;;;;;4163469;28;20042;-76
2023/08/28 02:35:05;;;;;;;1.80;1.58;;;16.30;99.90;;;;;;4162938;28;20033;-77
2023/08/28 02:37:05;;;;;;;1.95;1.42;;;16.30;99.90;;;;;;4162986;28;20064;-78
2023/08/28 02:39:06;;;;;;;1.95;1.35;;;16.30;99.90;;;;;;4162594;28;20034;-77
2023/08/28 02:41:09;;;;;;;1.75;1.60;;;16.30;99.90;;;;;;4176603;28;20121;-77
2023/08/28 02:43:10;;;;;;;3.00;1.85;;;16.20;99.90;;;;;;4169358;28;21627;-77
2023/08/28 02:45:11;;;;;;;1.55;1.25;;;16.20;99.90;;;;;;4161571;28;20395;-76
2023/08/28 02:47:11;;;;;;;2.30;1.45;;;16.20;99.90;;;;;;4179052;28;20040;-77
2023/08/28 02:49:12;;;;;;;1.23;1.10;;;16.20;99.90;;;;;;4164399;28;20037;-77
2023/08/28 02:51:13;;;;;;;2.40;1.80;;;16.20;99.90;;;;;;4182609;28;20089;-77
2023/08/28 02:53:13;;;;;;;1.73;1.63;;;16.20;99.90;;;;;;4163388;28;20037;-77
2023/08/28 02:55:14;;;;;;;4.47;1.90;;;16.20;99.90;;;;;;4167665;28;20043;-77
2023/08/28 02:57:14;;;;;;;2.38;1.92;;;16.20;99.90;;;;;;4178178;28;20064;-77
2023/08/28 02:59:15;;;;;;;2.10;1.88;;;16.20;99.90;;;;;;4166735;28;20032;-76
2023/08/28 03:01:17;;;;;;;3.20;1.95;;;16.20;99.90;;;;;;4176969;28;20029;-76
2023/08/28 03:03:18;;;;;;;2.60;1.75;;;16.20;99.90;;;;;;4171957;28;20033;-77
2023/08/28 03:05:19;;;;;;;2.40;1.60;;;16.20;99.90;;;;;;4161400;28;20195;-77
2023/08/28 03:07:20;;;;;;;2.47;1.63;;;16.20;99.90;;;;;;4178190;28;20551;-77
2023/08/28 03:09:22;;;;;;;2.38;1.63;;;16.20;99.90;;;;;;4163167;28;20083;-77
2023/08/28 03:11:22;;;;;;;1.93;1.77;;;16.10;99.90;;;;;;4174333;28;20109;-77
2023/08/28 03:13:23;;;;;;;2.30;1.60;;;16.10;99.90;;;;;;4174318;28;20030;-77
2023/08/28 03:15:23;;;;;;;2.95;1.85;;;16.10;99.90;;;;;;4153343;28;20657;-77
2023/08/28 03:17:24;;;;;;;2.80;2.20;;;16.10;99.90;;;;;;4162666;28;20038;-77
2023/08/28 03:19:25;;;;;;;2.17;1.60;;;16.10;99.90;;;;;;4162211;28;20424;-77
2023/08/28 03:21:25;;;;;;;3.45;1.80;;;16.00;99.90;;;;;;4153782;28;20037;-77
2023/08/28 03:23:26;;;;;;;1.90;1.60;;;16.00;99.90;;;;;;4150593;28;20104;-77
2023/08/28 03:25:26;;;;;;;1.83;1.60;;;16.00;99.90;;;;;;4165654;28;20554;-77
2023/08/28 03:27:27;;;;;;;1.90;1.52;;;16.00;99.90;;;;;;4162337;28;20057;-76
2023/08/28 03:29:28;;;;;;;3.60;2.15;;;16.00;99.90;;;;;;4162218;28;20393;-77
2023/08/28 03:31:30;;;;;;;2.53;1.70;;;16.00;99.90;;;;;;4161308;28;20029;-77
2023/08/28 03:33:30;;;;;;;2.63;2.05;;;15.90;99.90;;;;;;4162543;28;20083;-77
2023/08/28 03:35:31;;;;;;;3.15;2.25;;;15.90;99.90;;;;;;4165456;28;20037;-77
2023/08/28 03:37:32;;;;;;;2.30;1.90;;;15.80;99.90;;;;;;4162374;28;20057;-77
2023/08/28 03:39:32;;;;;;;2.25;1.80;;;15.80;99.90;;;;;;4160308;28;20079;-73
2023/08/28 03:41:33;;;;;;;2.30;1.75;;;15.70;99.90;;;;;;4166097;28;20485;-76
2023/08/28 03:43:34;;;;;;;2.00;1.58;;;15.70;99.90;;;;;;4209491;28;20490;-76
2023/08/28 03:45:35;;;;;;;3.08;1.95;;;15.60;99.90;;;;;;4160016;28;20059;-78
2023/08/28 03:47:35;;;;;;;2.00;1.75;;;15.70;99.90;;;;;;4162504;28;20501;-77
2023/08/28 03:49:36;;;;;;;2.35;2.08;;;15.70;99.90;;;;;;4162601;28;20464;-77
2023/08/28 03:51:36;;;;;;;2.42;2.20;;;15.70;99.90;;;;;;4158716;28;20029;-77
2023/08/28 03:53:37;;;;;;;3.30;1.95;;;15.70;99.90;;;;;;4162203;28;20450;-77
2023/08/28 03:55:38;;;;;;;3.47;2.00;;;15.70;99.90;;;;;;4163259;28;20108;-77
2023/08/28 03:57:39;;;;;;;3.15;1.85;;;15.70;99.90;;;;;;4168698;28;20124;-77
2023/08/28 03:59:39;;;;;;;3.08;2.03;;;15.70;99.90;;;;;;4160147;28;20094;-77
2023/08/28 04:01:40;;;;;;;2.75;2.00;;;15.70;99.90;;;;;;4163788;28;20037;-77
2023/08/28 04:03:40;;;;;;;3.45;1.80;;;15.70;99.90;;;;;;4162112;28;20112;-77
2023/08/28 04:05:42;;;;;;;2.53;1.90;;;15.70;99.90;;;;;;4159380;28;21116;-78
2023/08/28 04:07:44;;;;;;;2.50;1.98;;;15.70;99.90;;;;;;4160435;28;20484;-78
2023/08/28 04:09:44;;;;;;;2.55;1.98;;;15.70;99.90;;;;;;4161244;28;20509;-77
2023/08/28 04:11:45;;;;;;;2.50;2.03;;;15.70;99.90;;;;;;4170900;28;20094;-69
2023/08/28 04:13:46;;;;;;;2.10;1.90;;;15.70;99.90;;;;;;4176808;28;20465;-69
2023/08/28 04:15:47;;;;;;;2.75;1.90;;;15.70;99.90;;;;;;4160129;28;20040;-70
2023/08/28 04:17:48;;;;;;;2.10;1.77;;;15.70;99.90;;;;;;4176427;28;20025;-69
2023/08/28 04:19:50;;;;;;;3.05;1.85;;;15.70;99.90;;;;;;4162242;28;20032;-69
2023/08/28 04:21:50;;;;;;;2.17;1.75;;;15.70;99.90;;;;;;4162376;28;20033;-70
2023/08/28 04:23:51;;;;;;;2.53;1.90;;;15.70;99.90;;;;;;4149801;28;20569;-69
2023/08/28 04:25:52;;;;;;;4.05;2.10;;;15.70;99.90;;;;;;4155966;28;20041;-69
2023/08/28 04:27:52;;;;;;;3.60;2.53;;;15.70;99.90;;;;;;4157723;28;20040;-69
2023/08/28 04:29:53;;;;;;;3.67;2.00;;;15.70;99.90;;;;;;4161417;28;20160;-69
2023/08/28 04:31:53;;;;;;;2.83;1.98;;;15.70;99.90;;;;;;4154973;28;20105;-69
2023/08/28 04:33:54;;;;;;;3.03;1.77;;;15.60;99.90;;;;;;4176046;28;20385;-69
2023/08/28 04:35:55;;;;;;;3.15;1.52;;;15.70;99.90;;;;;;4160345;28;20022;-69
2023/08/28 04:37:55;;;;;;;1.95;1.70;;;15.70;99.90;;;;;;4161270;28;20040;-69
2023/08/28 04:39:56;;;;;;;2.67;1.90;;;15.70;99.90;;;;;;4160698;28;20597;-69
2023/08/28 04:41:56;;;;;;;2.40;1.75;;;15.60;99.90;;;;;;4164701;28;20024;-69
2023/08/28 04:43:57;;;;;;;2.17;1.40;;;15.60;99.90;;;;;;4161219;28;20026;-69
2023/08/28 04:45:58;;;;;;;2.10;1.90;;;15.60;99.90;;;;;;4160397;28;20581;-69
2023/08/28 04:47:58;;;;;;;2.28;1.83;;;15.60;99.90;;;;;;4158672;28;20108;-69
2023/08/28 04:49:59;;;;;;;2.63;2.00;;;15.60;99.90;;;;;;4161352;28;20095;-69
2023/08/28 04:51:59;;;;;;;3.55;1.90;;;15.60;99.90;;;;;;4162555;28;20076;-69
2023/08/28 04:54:00;;;;;;;3.47;2.50;;;15.60;99.90;;;;;;4166920;28;20051;-69
2023/08/28 04:56:01;;;;;;;2.60;1.88;;;15.60;99.90;;;;;;4166224;28;20048;-69
2023/08/28 04:58:02;;;;;;;3.53;1.88;;;15.60;99.90;;;;;;4178583;28;20025;-71
2023/08/28 05:00:03;;;;;;;2.30;1.70;;;15.50;99.90;;;;;;4183453;28;20025;-73
2023/08/28 05:02:03;;;;;;;2.47;1.65;;;15.50;99.90;;;;;;4166633;28;20481;-70
2023/08/28 05:04:05;;;;;;;3.67;1.90;;;15.50;99.90;;;;;;4165890;28;20133;-71
2023/08/28 05:06:05;;;;;;;2.15;1.70;;;15.50;99.90;;;;;;4163664;28;20513;-71
2023/08/28 05:08:06;;;;;;;3.97;1.85;;;15.40;99.90;;;;;;4163082;28;20124;-71
2023/08/28 05:10:07;;;;;;;3.47;1.92;;;15.40;99.90;;;;;;4164610;28;20052;-74
2023/08/28 05:12:09;;;;;;;1.95;1.75;;;15.40;99.90;;;;;;4164550;28;20038;-71
2023/08/28 05:14:10;;;;;;;2.17;1.70;;;15.50;99.90;;;;;;4166863;28;20037;-71
2023/08/28 05:16:10;;;;;;;2.45;1.90;;;15.50;99.90;;;;;;4161394;28;20053;-71
2023/08/28 05:18:11;;;;;;;3.05;2.20;;;15.50;99.90;;;;;;4179710;28;20036;-71
2023/08/28 05:20:12;;;;;;;3.55;2.20;;;15.50;99.90;;;;;;4166068;28;20041;-71
2023/08/28 05:22:12;;;;;;;4.43;2.00;;;15.50;99.90;;;;;;4165215;28;20041;-70
2023/08/28 05:24:13;;;;;;;4.03;2.28;;;15.50;99.90;;;;;;4165818;28;20104;-71
2023/08/28 05:26:14;;;;;;;2.35;2.05;;;15.50;99.90;;;;;;4165215;28;20439;-71
2023/08/28 05:28:14;;;;;;;2.75;2.45;;;15.60;99.90;;;;;;4172600;28;20104;-72
2023/08/28 05:30:15;;;;;;;3.00;1.90;;;15.60;99.90;;;;;;4164881;28;20554;-72
2023/08/28 05:32:16;;;;;;;3.58;2.28;;;15.60;99.90;;;;;;4170524;28;20037;-71
2023/08/28 05:34:16;;;;;;;3.00;2.25;;;15.60;99.90;;;;;;4148028;28;20033;-71
2023/08/28 05:36:17;;;;;;;2.47;2.17;;;15.70;99.90;;;;;;4150401;28;20057;-72
2023/08/28 05:38:17;;;;;;;2.78;2.13;;;15.70;99.90;;;;;;4163296;28;20109;-72
2023/08/28 05:40:18;;;;;;;2.20;2.00;;;15.70;99.90;;;;;;4196128;28;20028;-72
2023/08/28 05:42:19;;;;;;;3.45;2.45;;;15.70;99.90;;;;;;4165651;28;20504;-72
2023/08/28 05:44:19;;;;;;;3.90;2.45;;;15.70;99.90;;;;;;4163978;28;20529;-72
2023/08/28 05:46:20;;;;;;;2.92;2.30;;;15.70;99.90;;;;;;4161014;28;20034;-72
2023/08/28 05:48:20;;;;;;;2.33;2.08;;;15.70;99.90;;;;;;4169679;28;20120;-71
2023/08/28 05:50:21;;;;;;;3.10;2.50;;;15.80;99.90;;;;;;4165249;28;20037;-71
2023/08/28 05:52:22;;;;;;;2.70;2.50;;;15.80;99.90;;;;;;4153812;28;20098;-71
2023/08/28 05:54:22;;;;;;;3.65;2.40;;;15.80;99.90;;;;;;4160434;28;20061;-71
2023/08/28 05:56:23;;;;;;;5.28;2.63;;;15.70;99.90;;;;;;4161072;28;20029;-71
2023/08/28 05:58:24;;;;;;;4.13;2.50;;;15.80;99.90;;;;;;4168972;28;20401;-70
2023/08/28 06:00:26;;;;;;;3.80;2.60;;;15.80;99.90;;;;;;4164158;28;20393;-69
2023/08/28 06:02:26;;;;;;;5.80;2.72;;;15.80;99.90;;;;;;4163630;28;20112;-71
2023/08/28 06:04:27;;;;;;;6.82;3.15;;;15.90;99.90;;;;;;4158084;28;20046;-70
2023/08/28 06:06:28;;;;;;;4.57;3.33;;;15.90;99.90;;;;;;4159574;28;20107;-70
2023/08/28 06:08:29;;;;;;;4.40;3.28;;;15.90;99.90;;;;;;4195539;28;20032;-71
2023/08/28 06:10:29;;;;;;;3.45;2.80;;;15.90;99.90;;;;;;4162562;28;20114;-71
2023/08/28 06:12:30;;;;;;;4.15;3.10;;;15.90;99.90;;;;;;4163163;28;20030;-69
2023/08/28 06:14:31;;;;;;;4.85;3.38;;;15.90;99.90;;;;;;4164654;28;20099;-70
2023/08/28 06:16:31;;;;;;;3.65;2.72;;;15.80;99.90;;;;;;4159587;28;20083;-70
2023/08/28 06:18:32;;;;;;;3.47;2.65;;;15.80;99.90;;;;;;4162668;28;20022;-70
2023/08/28 06:20:35;;;;;;;4.18;2.75;;;15.80;99.90;;;;;;4160654;28;20034;-71
2023/08/28 06:22:42;;;;;;;3.10;2.50;;;15.80;99.90;;;;;;4162825;28;20869;-71
2023/08/28 06:24:43;;;;;;;3.65;2.97;;;15.80;99.90;;;;;;4161258;28;20373;-71
2023/08/28 06:26:43;;;;;;;4.60;2.40;;;15.80;99.90;;;;;;4161393;28;20038;-70
2023/08/28 06:28:44;;;;;;;3.97;2.55;;;15.80;99.90;;;;;;4160078;28;20060;-70
2023/08/28 06:30:45;;;;;;;4.60;2.83;;;15.90;99.90;;;;;;4159780;28;20075;-70
2023/08/28 06:32:45;;;;;;;2.92;2.42;;;15.90;99.90;;;;;;4159700;28;20052;-63
2023/08/28 06:34:46;;;;;;;3.70;2.63;;;15.90;99.90;;;;;;4152769;28;20029;-63
2023/08/28 06:36:49;;;;;;;4.68;3.10;;;16.00;99.90;;;;;;4157980;28;20152;-63
2023/08/28 06:38:52;;;;;;;4.68;2.63;;;16.10;99.90;;;;;;4155563;28;20065;-63
2023/08/28 06:40:53;;;;;;;3.03;2.33;;;16.20;99.90;;;;;;4156421;28;20048;-63
2023/08/28 06:42:54;;;;;;;4.90;2.85;;;16.40;99.90;;;;;;4160000;28;20489;-63
2023/08/28 06:44:54;;;;;;;3.78;2.47;;;16.70;99.90;;;;;;4157577;28;20128;-63
2023/08/28 06:46:55;;;;;;;2.42;2.22;;;17.00;99.90;;;;;;4155596;28;20042;-64
2023/08/28 06:48:56;;;;;;;2.17;1.77;;;17.30;99.90;;;;;;4159129;28;20037;-63
2023/08/28 06:50:57;;;;;;;2.28;1.88;;;17.70;99.90;;;;;;4156417;28;20583;-64
2023/08/28 06:52:57;;;;;;;3.38;2.40;;;18.00;99.90;;;;;;4179605;28;20044;-63
2023/08/28 06:54:58;;;;;;;3.55;2.60;;;18.40;99.90;;;;;;4157326;28;20444;-63
2023/08/28 06:56:59;;;;;;;5.22;2.70;;;18.70;99.90;;;;;;4157039;28;20782;-63
2023/08/28 06:59:00;;;;;;;3.70;2.30;;;19.00;99.90;;;;;;4158472;28;20172;-63
2023/08/28 07:01:00;;;;;;;2.15;1.77;;;19.30;99.90;;;;;;4156441;28;20041;-63
2023/08/28 07:03:01;;;;;;;3.03;2.30;;;19.60;99.90;;;;;;4157220;28;20136;-63
2023/08/28 07:05:02;;;;;;;3.53;2.15;;;19.90;99.90;;;;;;4155909;28;20509;-63
2023/08/28 07:07:02;;;;;;;2.58;1.80;;;20.30;99.90;;;;;;4155063;28;20140;-63
2023/08/28 07:09:03;;;;;;;2.97;2.20;;;20.60;99.90;;;;;;4156663;28;20029;-63
2023/08/28 07:11:04;;;;;;;4.10;2.45;;;20.80;99.90;;;;;;4155629;28;20057;-63
2023/08/28 07:13:04;;;;;;;5.25;2.70;;;21.20;99.90;;;;;;4156506;28;20033;-63
2023/08/28 07:15:12;;;;;;;3.40;2.50;;;21.30;99.90;;;;;;4157486;28;20034;-64
2023/08/28 07:17:12;;;;;;;5.63;2.50;;;21.60;99.90;;;;;;4156846;28;20402;-63
2023/08/28 07:19:13;;;;;;;4.15;2.55;;;21.80;99.90;;;;;;4155732;28;20026;-63
2023/08/28 07:21:13;;;;;;;3.88;2.55;;;22.00;99.90;;;;;;4152813;28;20045;-63
2023/08/28 07:23:14;;;;;;;3.88;2.60;;;22.20;99.90;;;;;;4155918;28;20086;-63
2023/08/28 07:25:16;;;;;;;3.25;2.28;;;22.40;99.90;;;;;;4156692;28;20033;-62
2023/08/28 07:27:17;;;;;;;3.27;2.17;;;22.50;99.90;;;;;;4156946;28;20112;-63
2023/08/28 07:29:18;;;;;;;3.75;2.30;;;22.70;99.90;;;;;;4186617;28;20278;-63
2023/08/28 07:31:18;;;;;;;2.72;2.05;;;22.80;99.90;;;;;;4155157;28;20041;-62
2023/08/28 07:33:19;;;;;;;3.20;2.33;;;22.90;99.90;;;;;;4171501;28;20036;-62
2023/08/28 07:35:20;;;;;;;3.75;2.40;;;23.10;99.90;;;;;;4152310;28;20037;-62
2023/08/28 07:37:20;;;;;;;5.47;1.95;;;23.20;99.90;;;;;;4156490;28;20037;-62
2023/08/28 07:39:21;;;;;;;3.72;2.25;;;23.20;99.90;;;;;;4155561;28;20037;-62
2023/08/28 07:41:21;;;;;;;2.55;2.05;;;23.30;99.90;;;;;;4155113;28;20048;-74
2023/08/28 07:43:22;;;;;;;1.92;1.60;;;23.30;99.90;;;;;;4156570;28;20591;-75
2023/08/28 07:45:23;;;;;;;4.28;2.05;;;23.40;99.90;;;;;;4154273;28;20033;-74
2023/08/28 07:47:23;;;;;;;2.65;1.92;;;23.40;99.90;;;;;;4156041;28;20049;-74
2023/08/28 07:49:24;;;;;;;2.42;1.60;;;23.30;99.90;;;;;;4156948;28;20037;-74
2023/08/28 07:51:24;;;;;;;3.80;1.85;;;23.30;99.90;;;;;;4154049;28;20508;-75
2023/08/28 07:53:25;;;;;;;4.25;2.05;;;23.30;99.90;;;;;;4157903;28;20030;-75
2023/08/28 07:55:26;;;;;;;3.40;2.28;;;23.30;99.90;;;;;;4153253;28;20037;-70
2023/08/28 07:57:27;;;;;;;4.47;2.45;;;23.30;99.90;;;;;;4155162;28;20052;-74
2023/08/28 07:59:27;;;;;;;2.30;1.77;;;23.10;99.90;;;;;;4156852;28;20100;-74
2023/08/28 08:01:29;;;;;;;3.85;2.33;;;23.10;99.90;;;;;;4158068;28;20025;-74
2023/08/28 08:03:31;;;;;;;4.35;2.35;;;23.00;99.90;;;;;;4159303;28;20125;-73
2023/08/28 08:05:32;;;;;;;3.25;1.90;;;22.90;99.90;;;;;;4160068;28;20140;-74
2023/08/28 08:07:34;;;;;;;2.80;2.05;;;22.80;99.90;;;;;;4160777;28;20045;-74
2023/08/28 08:09:35;;;;;;;3.45;2.13;;;22.70;99.90;;;;;;4160323;28;20041;-74
2023/08/28 08:11:35;;;;;;;3.53;1.92;;;22.60;99.90;;;;;;4159707;28;20099;-74
2023/08/28 08:13:36;;;;;;;2.50;2.00;;;22.60;99.90;;;;;;4163149;28;20072;-74
2023/08/28 08:15:37;;;;;;;4.10;2.50;;;22.60;99.90;;;;;;4174574;28;20485;-74
2023/08/28 08:17:38;;;;;;;3.83;2.20;;;22.50;99.90;;;;;;4159093;28;20026;-73
2023/08/28 08:19:38;;;;;;;3.25;2.00;;;22.40;99.90;;;;;;4160774;28;20102;-74
2023/08/28 08:21:39;;;;;;;2.88;1.90;;;22.40;99.90;;;;;;4175016;28;20021;-74
2023/08/28 08:23:39;;;;;;;3.60;2.05;;;22.40;99.90;;;;;;4160874;28;20037;-74
2023/08/28 08:25:40;;;;;;;3.83;2.28;;;22.50;99.90;;;;;;4159589;28;20056;-74
2023/08/28 08:27:44;;;;;;;2.58;1.98;;;22.50;99.90;;;;;;4158220;28;20040;-74
2023/08/28 08:29:45;;;;;;;3.10;2.20;;;22.50;99.90;;;;;;4153054;28;20056;-74
2023/08/28 08:31:46;;;;;;;2.47;2.20;;;22.60;99.90;;;;;;4160106;28;20076;-75
2023/08/28 08:33:46;;;;;;;3.40;2.30;;;22.70;99.90;;;;;;4160929;28;20049;-75
2023/08/28 08:35:47;;;;;;;2.63;1.77;;;22.70;99.90;;;;;;4160290;28;20579;-75
2023/08/28 08:37:52;;;;;;;3.05;2.05;;;22.70;99.90;;;;;;4162080;28;20057;-74
2023/08/28 08:39:52;;;;;;;2.83;1.98;;;22.70;99.90;;;;;;4159458;28;20497;-75
2023/08/28 08:41:54;;;;;;;2.13;1.73;;;22.70;99.90;;;;;;4159939;28;20117;-75
2023/08/28 08:43:54;;;;;;;2.10;1.70;;;22.70;99.90;;;;;;4158000;28;20495;-75
2023/08/28 08:46:07;;;;;;;2.22;1.90;;;22.70;99.90;;;;;;4157603;28;20092;-75
2023/08/28 08:48:08;;;;;;;;;;;22.70;99.90;;;;;;4159154;28;20093;-76
2023/08/28 08:50:10;;;;;;;2.95;1.98;;;22.70;99.90;;;;;;4173073;28;19909;-65
2023/08/28 08:52:15;;;;;;;4.18;2.00;;;22.60;99.90;;;;;;4159883;28;20030;-72
2023/08/28 08:54:24;;;;;;;3.05;1.70;;;22.60;99.90;;;;;;4159385;28;20393;-71
2023/08/28 08:56:27;;;;;;;2.55;1.80;;;22.60;99.90;;;;;;4157760;28;20119;-71
2023/08/28 08:58:30;;;;;;;2.70;1.60;;;22.60;99.90;;;;;;4159049;28;20191;-70
2023/08/28 09:00:31;;;;;;;4.75;1.85;;;22.50;99.90;;;;;;4158637;28;20133;-70
2023/08/28 09:02:32;;;;;;;2.70;1.55;;;22.50;99.90;;;;;;4154994;28;20044;-72
2023/08/28 09:04:34;;;;;;;2.35;1.77;;;22.50;99.90;;;;;;4172950;28;20053;-71
2023/08/28 09:06:37;;;;;;;1.73;1.40;;;22.50;99.90;;;;;;4160749;28;20480;-72
2023/08/28 09:08:40;;;;;;;2.60;1.60;;;22.50;99.90;;;;;;4158181;28;20500;-72
2023/08/28 09:10:44;;;;;;;2.75;1.80;;;22.50;99.90;;;;;;4158133;28;20029;-72
2023/08/28 09:12:46;;;;;;;2.80;1.48;;;22.50;99.90;;;;;;4158432;28;20091;-68
2023/08/28 09:14:46;;;;;;;2.22;1.75;;;22.40;99.90;;;;;;4158551;28;21035;-72
2023/08/28 09:16:47;;;;;;;2.33;1.85;;;22.40;99.90;;;;;;4159170;28;20112;-71
2023/08/28 09:18:49;;;;;;;1.88;1.45;;;22.40;99.90;;;;;;4158066;28;20037;-72
2023/08/28 09:21:07;;;;;;;3.47;1.40;;;22.40;99.90;;;;;;4159006;28;20037;-71
2023/08/28 09:23:07;;;;;;;2.20;1.25;;;22.40;99.90;;;;;;4158338;28;20092;-71
2023/08/28 09:25:08;;;;;;;1.85;1.33;;;22.30;99.90;;;;;;4158777;28;20587;-71
2023/08/28 09:27:12;;;;;;;2.53;1.17;;;22.30;99.90;;;;;;4159654;28;20039;-72
2023/08/28 09:29:13;;;;;;;2.70;1.20;;;22.30;99.90;;;;;;4157976;28;20507;-71
2023/08/28 09:31:30;;;;;;;1.73;1.10;;;22.30;99.90;;;;;;4159202;28;20061;-72
2023/08/28 09:33:57;;;;;;;1.73;1.17;;;22.20;99.90;;;;;;4157074;28;20032;-71
2023/08/28 09:35:58;;;;;;;1.52;0.90;;;22.10;99.90;;;;;;4158212;28;20116;-71
2023/08/28 09:38:00;;;;;;;2.25;1.25;;;22.10;99.90;;;;;;4160180;28;20037;-71
2023/08/28 09:40:01;;;;;;;1.98;1.00;;;22.00;99.90;;;;;;4161699;28;20030;-71
2023/08/28 09:42:05;;;;;;;2.58;1.40;;;21.90;99.90;;;;;;4163120;28;20091;-72
2023/08/28 09:44:06;;;;;;;2.65;1.42;;;21.90;99.90;;;;;;4162059;28;20049;-72
2023/08/28 09:46:07;;;;;;;1.30;1.10;;;21.80;99.90;;;;;;4160730;28;20042;-72
2023/08/28 09:48:09;;;;;;;1.92;1.00;;;21.80;99.90;;;;;;4161270;28;20113;-72
2023/08/28 09:50:10;;;;;;;2.08;0.98;;;21.80;99.90;;;;;;4159853;28;20135;-73
2023/08/28 09:52:11;;;;;;;2.92;1.35;;;21.80;99.90;;;;;;4158919;28;20030;-72
2023/08/28 09:54:14;;;;;;;1.20;1.10;;;21.70;99.90;;;;;;4155500;28;20026;-71
2023/08/28 09:56:18;;;;;;;2.47;1.38;;;21.60;99.90;;;;;;4163590;28;20025;-72
2023/08/28 09:58:22;;;;;;;4.07;1.25;;;21.70;99.90;;;;;;4158913;28;20026;-72
2023/08/28 10:00:22;;;;;;;1.15;1.00;;;21.60;99.90;;;;;;4161787;28;20702;-72
2023/08/28 10:02:25;;;;;;;2.45;1.60;;;21.60;99.90;;;;;;4162743;28;20034;-72
2023/08/28 10:04:27;;;;;;;2.63;1.20;;;21.60;99.90;;;;;;4160956;28;20045;-72
2023/08/28 10:06:32;;;;;;;1.10;0.90;;;21.60;99.90;;;;;;4160656;28;20038;-70
2023/08/28 10:08:33;;;;;;;1.88;1.00;;;21.60;99.90;;;;;;4160490;28;20045;-73
2023/08/28 10:10:35;;;;;;;1.40;1.00;;;21.70;99.90;;;;;;4153899;28;20121;-65
2023/08/28 10:12:36;;;;;;;3.08;1.30;;;21.70;99.90;;;;;;4159729;28;20049;-69
2023/08/28 10:14:37;;;;;;;0.85;0.80;;;21.70;99.90;;;;;;4159770;28;20025;-68
2023/08/28 10:16:52;;;;;;;2.30;1.10;;;21.80;99.90;;;;;;4159955;28;20026;-69
2023/08/28 10:19:27;;;;;;;4.00;1.10;;;21.90;99.90;;;;;;4159330;28;20037;-69
2023/08/28 10:21:30;;;;;;;2.00;1.10;;;22.00;99.90;;;;;;4151592;28;20060;-69
2023/08/28 10:23:31;;;;;;;2.13;0.82;;;22.00;99.90;;;;;;4161496;28;20501;-68
2023/08/28 10:25:33;;;;;;;1.88;1.15;;;22.10;99.90;;;;;;4159343;28;20116;-68
2023/08/28 10:27:35;;;;;;;1.85;1.05;;;22.10;99.90;;;;;;4162237;28;20080;-68
2023/08/28 10:29:37;;;;;;;1.85;1.10;;;22.10;99.90;;;;;;4161603;28;20064;-68
2023/08/28 10:31:39;;;;;;;1.40;1.30;;;22.10;99.90;;;;;;4161138;28;20033;-69
2023/08/28 10:33:40;;;;;;;2.40;0.90;;;22.10;99.90;;;;;;4161961;28;20264;-69
2023/08/28 10:35:44;;;;;;;1.13;1.02;;;22.20;99.90;;;;;;4161178;28;20029;-69